Time;durP1;ratioP1;P1;durP2;ratioP2;P2;SDS_P1;SDS_P2;PMS_P1;PMS_P2;Temp;Humidity;BMP_temperature;BMP_pressure;BME280_temperature;BME280_humidity;BME280_pressure;Samples;Min_cycle;Max_cycle;Signal;HPM_P1;HPM_P2
2022/07/22 00:01:47;;;;;;;4.50;2.15;;;19.00;99.90;;;;;;5049295;28;20207;-65
2022/07/22 00:04:14;;;;;;;12.68;2.70;;;19.00;99.90;;;;;;5019167;28;20041;-65
2022/07/22 00:06:41;;;;;;;9.15;2.88;;;19.00;99.90;;;;;;5036436;28;20063;-66
2022/07/22 00:09:08;;;;;;;11.55;2.45;;;19.00;99.90;;;;;;5050925;28;20099;-65
2022/07/22 00:11:35;;;;;;;5.68;2.65;;;18.90;99.90;;;;;;5032403;28;20049;-68
2022/07/22 00:14:02;;;;;;;7.35;2.78;;;18.90;99.90;;;;;;5050873;28;20041;-65
2022/07/22 00:16:29;;;;;;;8.93;3.05;;;18.90;99.90;;;;;;5050101;28;20049;-65
2022/07/22 00:18:56;;;;;;;4.95;1.88;;;18.90;99.90;;;;;;5052887;28;20052;-65
2022/07/22 00:21:24;;;;;;;5.88;2.08;;;18.90;99.90;;;;;;5033350;28;20041;-65
2022/07/22 00:23:51;;;;;;;6.75;2.03;;;18.90;99.90;;;;;;5051862;28;20045;-66
2022/07/22 00:26:17;;;;;;;8.00;2.72;;;18.90;99.90;;;;;;5052756;28;20060;-69
2022/07/22 00:28:44;;;;;;;7.80;2.13;;;18.90;99.90;;;;;;5051368;28;20037;-65
2022/07/22 00:31:11;;;;;;;7.65;2.25;;;18.80;99.90;;;;;;5032960;28;20072;-65
2022/07/22 00:33:38;;;;;;;11.48;2.95;;;18.80;99.90;;;;;;5040689;28;20499;-65
2022/07/22 00:36:06;;;;;;;6.65;2.20;;;18.80;99.90;;;;;;5053086;28;20045;-65
2022/07/22 00:38:33;;;;;;;8.32;2.60;;;18.70;99.90;;;;;;5051846;28;20051;-69
2022/07/22 00:41:00;;;;;;;6.70;2.17;;;18.70;99.90;;;;;;5053438;28;20040;-65
2022/07/22 00:43:27;;;;;;;4.90;2.42;;;18.70;99.90;;;;;;5052086;28;20052;-65
2022/07/22 00:45:54;;;;;;;9.40;2.63;;;18.70;99.90;;;;;;5051203;28;20068;-66
2022/07/22 00:48:21;;;;;;;9.77;2.75;;;18.60;99.90;;;;;;5028816;28;20061;-65
2022/07/22 00:50:48;;;;;;;14.48;2.75;;;18.60;99.90;;;;;;5021468;28;20488;-65
2022/07/22 00:53:15;;;;;;;10.95;2.35;;;18.60;99.90;;;;;;5036038;28;20055;-65
2022/07/22 00:55:42;;;;;;;9.63;2.40;;;18.60;99.90;;;;;;5035156;28;20041;-65
2022/07/22 00:58:09;;;;;;;10.70;2.80;;;18.60;99.90;;;;;;5054345;28;20056;-65
2022/07/22 01:00:36;;;;;;;5.35;2.05;;;18.60;99.90;;;;;;5052449;28;20056;-65
2022/07/22 01:03:03;;;;;;;7.97;2.35;;;18.60;99.90;;;;;;5051291;28;20045;-65
2022/07/22 01:05:30;;;;;;;10.85;2.42;;;18.60;99.90;;;;;;5035354;28;20080;-65
2022/07/22 01:07:57;;;;;;;6.10;2.10;;;18.50;99.90;;;;;;5052442;28;20071;-69
2022/07/22 01:10:24;;;;;;;5.70;1.95;;;18.50;99.90;;;;;;5053401;28;20049;-65
2022/07/22 01:12:51;;;;;;;5.28;2.58;;;18.60;99.90;;;;;;5051430;28;20052;-65
2022/07/22 01:15:18;;;;;;;8.60;2.38;;;18.60;99.90;;;;;;5034608;28;20443;-66
2022/07/22 01:17:45;;;;;;;10.65;3.25;;;18.60;99.90;;;;;;5051559;28;20041;-65
2022/07/22 01:20:12;;;;;;;10.60;2.75;;;18.50;99.90;;;;;;5035652;28;20072;-65
2022/07/22 01:22:39;;;;;;;8.35;3.22;;;18.50;99.90;;;;;;5051430;28;20055;-65
2022/07/22 01:25:06;;;;;;;10.15;2.63;;;18.50;99.90;;;;;;5032443;28;20050;-66
2022/07/22 01:27:33;;;;;;;5.15;2.58;;;18.50;99.90;;;;;;5050727;28;20483;-67
2022/07/22 01:30:00;;;;;;;9.85;2.88;;;18.40;99.90;;;;;;5040149;28;20059;-66
2022/07/22 01:32:27;;;;;;;5.95;1.88;;;18.40;99.90;;;;;;5050629;28;20060;-65
2022/07/22 01:34:54;;;;;;;8.15;2.30;;;18.40;99.90;;;;;;5034789;28;20049;-65
2022/07/22 01:37:21;;;;;;;8.45;2.20;;;18.40;99.90;;;;;;5050482;28;20590;-65
2022/07/22 01:39:48;;;;;;;9.05;2.17;;;18.40;99.90;;;;;;5051527;28;20049;-65
2022/07/22 01:42:15;;;;;;;7.25;2.20;;;18.50;99.90;;;;;;5050064;28;20131;-68
2022/07/22 01:44:42;;;;;;;11.15;2.85;;;18.50;99.90;;;;;;5049407;28;20045;-65
2022/07/22 01:47:10;;;;;;;6.03;2.20;;;18.50;99.90;;;;;;5048821;28;20056;-65
2022/07/22 01:49:37;;;;;;;6.90;1.90;;;18.40;99.90;;;;;;5049831;28;20071;-69
2022/07/22 01:52:04;;;;;;;8.95;2.33;;;18.40;99.90;;;;;;5050189;28;20080;-65
2022/07/22 01:54:32;;;;;;;10.48;2.75;;;18.40;99.90;;;;;;5038122;28;20123;-65
2022/07/22 01:56:59;;;;;;;9.05;2.83;;;18.30;99.90;;;;;;5030689;28;20049;-65
2022/07/22 01:59:26;;;;;;;9.10;2.38;;;18.30;99.90;;;;;;5042614;28;20075;-67
2022/07/22 02:01:53;;;;;;;9.05;2.50;;;18.30;99.90;;;;;;5051253;28;20509;-65
2022/07/22 02:04:20;;;;;;;9.38;2.58;;;18.30;99.90;;;;;;5050835;28;20063;-65
2022/07/22 02:06:52;;;;;;;7.55;2.53;;;18.20;99.90;;;;;;5050918;28;20403;-65
2022/07/22 02:09:19;;;;;;;7.65;2.10;;;18.20;99.90;;;;;;5033181;28;20052;-65
2022/07/22 02:11:46;;;;;;;8.63;2.90;;;18.20;99.90;;;;;;5050491;28;20460;-65
2022/07/22 02:14:13;;;;;;;11.68;2.58;;;18.20;99.90;;;;;;5054965;28;20045;-65
2022/07/22 02:16:40;;;;;;;6.10;2.30;;;18.20;99.90;;;;;;5054095;28;20041;-64
2022/07/22 02:19:08;;;;;;;7.53;2.60;;;18.20;99.90;;;;;;5050327;28;20059;-69
2022/07/22 02:21:35;;;;;;;6.65;2.65;;;18.20;99.90;;;;;;5050676;28;20512;-64
2022/07/22 02:24:02;;;;;;;6.40;2.13;;;18.10;99.90;;;;;;5051886;28;20057;-64
2022/07/22 02:26:29;;;;;;;7.97;2.42;;;18.10;99.90;;;;;;5051787;28;20049;-66
2022/07/22 02:28:56;;;;;;;5.70;2.63;;;18.10;99.90;;;;;;5048970;28;20047;-65
2022/07/22 02:31:24;;;;;;;6.63;2.45;;;18.20;99.90;;;;;;5033517;28;20085;-65
2022/07/22 02:33:51;;;;;;;8.52;2.30;;;18.10;99.90;;;;;;5050786;28;20052;-65
2022/07/22 02:36:18;;;;;;;7.68;2.10;;;18.10;99.90;;;;;;5052374;28;20062;-65
2022/07/22 02:38:45;;;;;;;6.28;2.00;;;18.10;99.90;;;;;;5052877;28;20052;-65
2022/07/22 02:41:12;;;;;;;5.95;2.17;;;18.10;99.90;;;;;;5051272;28;20041;-65
2022/07/22 02:43:39;;;;;;;7.95;2.30;;;18.10;99.90;;;;;;5049377;28;20049;-65
2022/07/22 02:46:06;;;;;;;9.30;2.10;;;18.00;99.90;;;;;;5051410;28;20053;-66
2022/07/22 02:48:33;;;;;;;6.00;2.25;;;18.00;99.90;;;;;;5049863;28;20120;-64
2022/07/22 02:51:00;;;;;;;7.15;3.03;;;18.00;99.90;;;;;;5050867;28;20053;-65
2022/07/22 02:53:27;;;;;;;9.50;2.47;;;18.00;99.90;;;;;;5049976;28;20049;-65
2022/07/22 02:55:54;;;;;;;5.30;1.80;;;18.00;99.90;;;;;;5050218;28;20049;-65
2022/07/22 02:58:21;;;;;;;6.07;2.13;;;18.10;99.90;;;;;;5051839;28;20083;-65
2022/07/22 03:00:48;;;;;;;6.90;2.75;;;18.10;99.90;;;;;;5050512;28;20056;-68
2022/07/22 03:03:15;;;;;;;7.45;2.20;;;18.10;99.90;;;;;;5046819;28;20044;-68
2022/07/22 03:05:42;;;;;;;7.03;2.42;;;18.10;99.90;;;;;;5049626;28;20045;-65
2022/07/22 03:08:09;;;;;;;7.40;2.30;;;18.00;99.90;;;;;;5049066;28;20051;-66
2022/07/22 03:10:36;;;;;;;5.55;2.40;;;18.00;99.90;;;;;;5052894;28;20047;-65
2022/07/22 03:13:03;;;;;;;8.02;2.10;;;18.00;99.90;;;;;;5029535;28;20041;-64
2022/07/22 03:15:30;;;;;;;8.27;3.42;;;18.00;99.90;;;;;;5032193;28;20054;-65
2022/07/22 03:17:57;;;;;;;7.20;2.28;;;17.90;99.90;;;;;;5049914;28;20052;-66
2022/07/22 03:20:24;;;;;;;11.73;2.58;;;17.90;99.90;;;;;;5047991;28;20416;-66
2022/07/22 03:22:51;;;;;;;11.60;3.00;;;17.80;99.90;;;;;;5049425;28;20041;-65
2022/07/22 03:25:18;;;;;;;10.32;3.08;;;17.80;99.90;;;;;;5049238;28;20047;-65
2022/07/22 03:27:45;;;;;;;6.43;2.30;;;17.80;99.90;;;;;;5016592;28;20416;-65
2022/07/22 03:30:12;;;;;;;10.77;3.30;;;17.80;99.90;;;;;;5050779;28;20045;-65
2022/07/22 03:32:44;;;;;;;10.25;2.85;;;17.80;99.90;;;;;;5049281;28;20054;-65
2022/07/22 03:35:12;;;;;;;9.00;2.88;;;17.80;99.90;;;;;;5049303;28;20515;-65
2022/07/22 03:37:39;;;;;;;6.10;2.28;;;17.80;99.90;;;;;;5049809;28;20048;-66
2022/07/22 03:40:07;;;;;;;6.07;2.10;;;17.80;99.90;;;;;;5034472;28;20128;-65
2022/07/22 03:42:34;;;;;;;11.55;2.60;;;17.80;99.90;;;;;;5052116;28;20525;-64
2022/07/22 03:45:01;;;;;;;12.02;3.05;;;17.80;99.90;;;;;;5051408;28;20494;-65
2022/07/22 03:47:28;;;;;;;6.82;2.28;;;17.80;99.90;;;;;;5033472;28;20076;-68
2022/07/22 03:49:54;;;;;;;6.50;2.85;;;17.80;99.90;;;;;;5052576;28;20071;-65
2022/07/22 03:52:21;;;;;;;6.45;2.78;;;17.80;99.90;;;;;;5036794;28;20591;-65
2022/07/22 03:54:48;;;;;;;5.97;2.58;;;17.80;99.90;;;;;;5034674;28;20061;-66
2022/07/22 03:57:15;;;;;;;10.50;2.35;;;17.70;99.90;;;;;;5053556;28;20041;-65
2022/07/22 03:59:42;;;;;;;5.03;2.80;;;17.70;99.90;;;;;;5020234;28;20049;-66
2022/07/22 04:02:09;;;;;;;10.63;2.95;;;17.70;99.90;;;;;;5053323;28;20049;-65
2022/07/22 04:04:36;;;;;;;9.57;3.78;;;17.70;99.90;;;;;;5054433;28;20480;-65
2022/07/22 04:07:03;;;;;;;4.55;2.47;;;17.60;99.90;;;;;;5053901;28;20469;-66
2022/07/22 04:09:30;;;;;;;6.93;2.72;;;17.60;99.90;;;;;;5052776;28;20430;-65
2022/07/22 04:11:57;;;;;;;11.88;3.22;;;17.60;99.90;;;;;;5054417;28;20381;-65
2022/07/22 04:14:24;;;;;;;6.68;2.20;;;17.60;99.90;;;;;;5037801;28;20090;-66
2022/07/22 04:16:51;;;;;;;6.28;2.30;;;17.60;99.90;;;;;;5052964;28;20064;-66
2022/07/22 04:19:18;;;;;;;6.75;2.35;;;17.50;99.90;;;;;;5052195;28;20055;-65
2022/07/22 04:21:45;;;;;;;11.40;3.65;;;17.50;99.90;;;;;;5051568;28;20133;-65
2022/07/22 04:24:12;;;;;;;8.10;2.58;;;17.50;99.90;;;;;;5052695;28;20052;-66
2022/07/22 04:26:39;;;;;;;7.25;2.88;;;17.40;99.90;;;;;;5048983;28;20056;-66
2022/07/22 04:29:06;;;;;;;10.38;2.65;;;17.40;99.90;;;;;;5054131;28;20083;-65
2022/07/22 04:31:33;;;;;;;5.93;1.88;;;17.40;99.90;;;;;;5052215;28;20055;-65
2022/07/22 04:34:00;;;;;;;8.02;2.70;;;17.40;99.90;;;;;;5021215;28;20132;-65
2022/07/22 04:36:27;;;;;;;4.75;2.45;;;17.40;99.90;;;;;;5054638;28;20093;-69
2022/07/22 04:38:54;;;;;;;5.88;2.33;;;17.40;99.90;;;;;;5057813;28;20041;-65
2022/07/22 04:41:21;;;;;;;6.10;2.60;;;17.50;99.90;;;;;;5042630;28;20070;-66
2022/07/22 04:43:48;;;;;;;7.40;2.63;;;17.40;99.90;;;;;;5034620;28;20571;-65
2022/07/22 04:46:15;;;;;;;6.22;2.40;;;17.40;99.90;;;;;;5051569;28;20052;-65
2022/07/22 04:48:42;;;;;;;6.97;2.72;;;17.40;99.90;;;;;;5051677;28;20053;-65
2022/07/22 04:51:09;;;;;;;9.80;2.35;;;17.40;99.90;;;;;;5052547;28;20064;-65
2022/07/22 04:53:36;;;;;;;6.00;2.33;;;17.40;99.90;;;;;;5052051;28;20048;-65
2022/07/22 04:56:13;;;;;;;7.20;2.53;;;17.40;99.90;;;;;;5053426;28;20056;-65
2022/07/22 04:58:40;;;;;;;5.78;2.45;;;17.50;99.90;;;;;;5051729;28;20060;-66
2022/07/22 05:01:08;;;;;;;7.80;2.78;;;17.50;99.90;;;;;;5053597;28;20060;-66
2022/07/22 05:03:38;;;;;;;9.18;2.85;;;17.50;99.90;;;;;;5051642;28;20419;-66
2022/07/22 05:06:05;;;;;;;8.20;3.05;;;17.60;99.90;;;;;;5052477;28;20053;-65
2022/07/22 05:08:32;;;;;;;5.95;2.35;;;17.70;99.90;;;;;;5018887;28;20053;-66
2022/07/22 05:10:59;;;;;;;7.82;2.20;;;17.70;99.90;;;;;;5052787;28;20049;-65
2022/07/22 05:13:26;;;;;;;8.07;2.55;;;17.70;99.90;;;;;;5053760;28;20053;-65
2022/07/22 05:15:53;;;;;;;7.35;2.75;;;17.70;99.90;;;;;;5053132;28;20051;-65
2022/07/22 05:18:20;;;;;;;8.13;2.60;;;17.80;99.90;;;;;;5052215;28;20052;-65
2022/07/22 05:20:47;;;;;;;4.75;2.00;;;17.70;99.90;;;;;;5034424;28;20045;-67
2022/07/22 05:23:13;;;;;;;4.75;2.13;;;17.70;99.90;;;;;;5051838;28;20041;-66
2022/07/22 05:25:40;;;;;;;9.32;3.13;;;17.80;99.90;;;;;;5053297;28;20052;-68
2022/07/22 05:28:07;;;;;;;6.80;2.17;;;17.80;99.90;;;;;;5052923;28;20049;-66
2022/07/22 05:30:34;;;;;;;7.22;2.20;;;17.90;99.90;;;;;;5037593;28;20048;-65
2022/07/22 05:33:01;;;;;;;5.93;2.65;;;17.90;99.90;;;;;;5026249;28;20060;-65
2022/07/22 05:35:28;;;;;;;9.18;2.78;;;18.00;99.90;;;;;;5033927;28;20412;-65
2022/07/22 05:37:56;;;;;;;7.50;3.25;;;18.00;99.90;;;;;;5050308;28;20087;-65
2022/07/22 05:40:22;;;;;;;8.52;3.70;;;18.00;99.90;;;;;;5054986;28;20057;-65
2022/07/22 05:42:49;;;;;;;12.90;4.97;;;18.00;99.90;;;;;;5050840;28;20522;-66
2022/07/22 05:45:16;;;;;;;10.18;5.13;;;18.00;99.90;;;;;;5053542;28;20484;-67
2022/07/22 05:47:43;;;;;;;12.15;5.70;;;18.10;99.90;;;;;;5029751;28;20064;-65
2022/07/22 05:50:10;;;;;;;13.52;6.13;;;18.10;99.90;;;;;;5041264;28;20045;-65
2022/07/22 05:52:38;;;;;;;16.80;7.93;;;18.10;99.90;;;;;;5050226;28;20099;-65
2022/07/22 05:55:06;;;;;;;15.98;7.47;;;18.10;99.90;;;;;;5052024;28;20052;-65
2022/07/22 05:57:33;;;;;;;24.83;8.43;;;18.10;99.90;;;;;;5051887;28;20083;-65
2022/07/22 06:00:00;;;;;;;12.18;6.10;;;18.10;99.90;;;;;;5048301;28;20139;-65
2022/07/22 06:02:28;;;;;;;12.93;6.50;;;18.20;99.90;;;;;;5051139;28;20049;-67
2022/07/22 06:04:55;;;;;;;14.07;7.53;;;18.10;99.90;;;;;;5049985;28;20531;-65
2022/07/22 06:07:22;;;;;;;11.85;6.20;;;18.10;99.90;;;;;;5039619;28;20040;-65
2022/07/22 06:09:50;;;;;;;11.20;4.80;;;18.20;99.90;;;;;;5021129;28;20049;-65
2022/07/22 06:12:17;;;;;;;8.02;4.80;;;18.30;99.90;;;;;;5046217;28;20059;-66
2022/07/22 06:14:43;;;;;;;12.35;5.22;;;18.20;99.90;;;;;;5041078;28;20060;-65
2022/07/22 06:17:11;;;;;;;9.70;4.53;;;18.20;99.90;;;;;;5050099;28;20468;-65
2022/07/22 06:19:38;;;;;;;7.45;3.97;;;18.20;99.90;;;;;;5051213;28;20068;-67
2022/07/22 06:22:05;;;;;;;10.57;4.28;;;18.20;99.90;;;;;;5049278;28;20051;-66
2022/07/22 06:24:32;;;;;;;11.48;4.28;;;18.10;99.90;;;;;;5050307;28;20038;-65
2022/07/22 06:26:59;;;;;;;13.02;4.22;;;18.10;99.90;;;;;;5050364;28;20059;-71
2022/07/22 06:29:26;;;;;;;8.80;4.90;;;18.20;99.90;;;;;;5052900;28;20057;-72
2022/07/22 06:31:53;;;;;;;10.35;4.28;;;18.30;99.90;;;;;;5051091;28;20052;-64
2022/07/22 06:34:20;;;;;;;8.95;4.13;;;18.30;99.90;;;;;;5050081;28;20082;-69
2022/07/22 06:36:47;;;;;;;9.80;3.45;;;18.40;99.90;;;;;;5016450;28;20050;-73
2022/07/22 06:39:13;;;;;;;7.88;2.78;;;18.40;99.90;;;;;;5048950;28;20049;-70
2022/07/22 06:41:40;;;;;;;8.45;3.13;;;18.50;99.90;;;;;;5049926;28;20591;-71
2022/07/22 06:44:07;;;;;;;7.18;3.70;;;18.60;99.90;;;;;;5048126;28;20037;-69
2022/07/22 06:46:34;;;;;;;43.88;34.38;;;18.70;99.90;;;;;;5049814;28;20052;-69
2022/07/22 06:49:03;;;;;;;12.48;4.10;;;18.80;99.90;;;;;;5049329;28;20227;-68
2022/07/22 06:51:32;;;;;;;10.70;3.22;;;18.70;99.90;;;;;;5017213;28;20045;-68
2022/07/22 06:53:59;;;;;;;13.77;3.83;;;18.80;99.90;;;;;;5048799;28;20045;-66
2022/07/22 06:56:26;;;;;;;13.15;2.47;;;18.80;99.90;;;;;;5050127;28;20053;-76
2022/07/22 06:58:53;;;;;;;10.00;2.40;;;18.80;99.90;;;;;;5053443;28;20056;-74
2022/07/22 07:01:21;;;;;;;6.28;2.50;;;18.90;99.90;;;;;;5047958;28;20052;-75
2022/07/22 07:03:50;;;;;;;9.32;2.22;;;18.90;99.90;;;;;;5033443;28;20049;-76
2022/07/22 07:06:17;;;;;;;;;;;19.00;99.90;;;;;;5034452;28;20410;-75
2022/07/22 07:08:44;;;;;;;10.68;2.88;;;19.00;99.90;;;;;;5050405;28;19921;-75
2022/07/22 07:11:11;;;;;;;5.07;2.10;;;19.00;99.90;;;;;;5033034;28;20480;-75
2022/07/22 07:13:39;;;;;;;7.88;1.90;;;19.00;99.90;;;;;;5051645;28;20086;-77
2022/07/22 07:16:06;;;;;;;9.32;3.72;;;18.90;99.90;;;;;;5028109;28;20914;-70
2022/07/22 07:18:33;;;;;;;11.55;2.85;;;18.90;99.90;;;;;;5057627;28;20066;-67
2022/07/22 07:21:00;;;;;;;7.93;2.97;;;19.00;99.90;;;;;;5049148;28;20523;-67
2022/07/22 07:23:26;;;;;;;6.05;2.47;;;19.20;99.90;;;;;;5034662;28;20052;-67
2022/07/22 07:25:53;;;;;;;9.50;3.83;;;19.30;99.90;;;;;;5051990;28;20053;-67
2022/07/22 07:28:20;;;;;;;32.17;20.40;;;19.50;99.90;;;;;;5055267;28;20201;-67
2022/07/22 07:30:48;;;;;;;12.40;5.47;;;19.70;99.90;;;;;;5050051;28;20068;-67
2022/07/22 07:33:15;;;;;;;11.55;6.20;;;19.80;99.90;;;;;;5034816;28;20135;-67
2022/07/22 07:35:42;;;;;;;13.07;3.45;;;19.90;99.90;;;;;;5053789;28;20052;-68
2022/07/22 07:38:09;;;;;;;11.65;2.80;;;19.90;99.90;;;;;;5050042;28;20151;-67
2022/07/22 07:40:36;;;;;;;7.80;3.08;;;19.80;99.90;;;;;;5050154;28;20404;-68
2022/07/22 07:43:03;;;;;;;8.93;3.42;;;19.80;99.90;;;;;;5049595;28;20045;-68
2022/07/22 07:45:30;;;;;;;6.55;2.17;;;19.90;99.90;;;;;;5013187;28;20400;-69
2022/07/22 07:47:57;;;;;;;9.82;2.35;;;19.90;99.90;;;;;;5023362;28;20056;-69
2022/07/22 07:50:24;;;;;;;7.63;2.58;;;20.00;99.90;;;;;;5042397;28;20056;-69
2022/07/22 07:52:51;;;;;;;6.15;2.30;;;20.10;99.90;;;;;;5033666;28;20048;-70
2022/07/22 07:55:19;;;;;;;8.85;2.30;;;20.30;99.90;;;;;;5049815;28;20041;-69
2022/07/22 07:57:48;;;;;;;6.60;2.15;;;20.50;99.90;;;;;;5049642;28;20045;-69
2022/07/22 08:00:23;;;;;;;6.93;2.20;;;20.70;99.90;;;;;;5049656;28;20041;-71
2022/07/22 08:02:51;;;;;;;5.32;1.83;;;21.00;99.90;;;;;;5049718;28;20052;-69
2022/07/22 08:05:21;;;;;;;7.10;2.03;;;21.20;99.90;;;;;;5019243;28;20046;-69
2022/07/22 08:07:49;;;;;;;6.72;2.33;;;21.40;99.90;;;;;;5025121;28;20135;-68
2022/07/22 08:10:16;;;;;;;5.80;2.95;;;21.40;99.90;;;;;;5050023;28;20084;-69
2022/07/22 08:13:03;;;;;;;9.85;2.08;;;21.10;99.90;;;;;;5016886;28;20798;-68
2022/07/22 08:15:30;;;;;;;15.85;9.27;;;21.00;99.90;;;;;;5019598;28;20073;-69
2022/07/22 08:17:58;;;;;;;7.45;3.15;;;20.70;99.90;;;;;;5032981;28;20045;-69
2022/07/22 08:20:25;;;;;;;10.15;2.60;;;20.60;99.90;;;;;;5032453;28;20124;-69
2022/07/22 08:22:52;;;;;;;5.35;2.28;;;20.60;99.90;;;;;;5049395;28;20103;-69
2022/07/22 08:25:19;;;;;;;6.10;2.13;;;20.50;99.90;;;;;;5016460;28;20053;-69
2022/07/22 08:27:46;;;;;;;9.20;2.67;;;20.40;99.90;;;;;;5048103;28;20051;-70
2022/07/22 08:30:13;;;;;;;5.70;2.00;;;20.40;99.90;;;;;;5035368;28;20152;-69
2022/07/22 08:32:40;;;;;;;7.40;2.38;;;20.40;99.90;;;;;;5036556;28;20055;-70
2022/07/22 08:35:08;;;;;;;8.95;3.10;;;20.50;99.90;;;;;;5053884;28;20053;-69
2022/07/22 08:37:35;;;;;;;7.30;2.17;;;20.60;99.90;;;;;;5053917;28;20132;-69
2022/07/22 08:40:04;;;;;;;11.73;3.08;;;20.60;99.90;;;;;;5030353;28;20046;-69
2022/07/22 08:42:31;;;;;;;5.80;2.13;;;20.80;99.90;;;;;;5051493;28;20061;-70
2022/07/22 08:44:57;;;;;;;7.93;2.42;;;20.90;99.90;;;;;;5052482;28;20045;-69
2022/07/22 08:47:31;;;;;;;7.20;3.30;;;21.10;99.90;;;;;;5021981;28;20568;-69
2022/07/22 08:50:09;;;;;;;5.22;1.90;;;21.40;99.90;;;;;;5052221;28;20045;-69
2022/07/22 08:52:37;;;;;;;10.98;2.30;;;21.60;99.90;;;;;;5025520;28;20049;-69
2022/07/22 08:55:08;;;;;;;8.02;2.65;;;21.60;99.90;;;;;;5036219;28;20052;-69
2022/07/22 08:57:37;;;;;;;9.82;2.63;;;21.70;99.90;;;;;;5036018;28;20060;-69
2022/07/22 09:00:12;;;;;;;5.43;2.13;;;21.70;99.90;;;;;;5035651;28;20091;-70
2022/07/22 09:02:40;;;;;;;5.78;2.00;;;21.70;99.90;;;;;;5036177;28;20061;-68
2022/07/22 09:05:08;;;;;;;5.23;2.00;;;21.70;99.90;;;;;;5050858;28;20129;-68
2022/07/22 09:07:58;;;;;;;6.80;2.10;;;21.60;99.90;;;;;;5035301;28;20274;-69
2022/07/22 09:10:31;;;;;;;8.18;2.50;;;21.70;99.90;;;;;;5052386;28;20107;-68
2022/07/22 09:12:59;;;;;;;8.60;4.25;;;21.70;99.90;;;;;;5036149;28;20057;-66
2022/07/22 09:15:31;;;;;;;8.18;4.85;;;21.80;99.90;;;;;;5052086;28;20049;-68
2022/07/22 09:17:58;;;;;;;11.38;4.40;;;21.80;99.90;;;;;;5052219;28;20048;-67
2022/07/22 09:20:32;;;;;;;6.97;2.55;;;21.80;99.90;;;;;;5020920;28;20110;-67
2022/07/22 09:22:59;;;;;;;8.40;3.17;;;21.80;99.90;;;;;;5019837;28;20216;-67
2022/07/22 09:25:34;;;;;;;7.55;2.00;;;21.70;99.90;;;;;;5053094;28;20053;-68
2022/07/22 09:28:07;;;;;;;5.03;2.00;;;21.80;99.90;;;;;;5019782;28;20080;-68
2022/07/22 09:30:38;;;;;;;5.68;2.42;;;21.90;99.90;;;;;;5052892;28;20131;-67
2022/07/22 09:33:07;;;;;;;5.40;2.13;;;22.00;99.90;;;;;;5036144;28;20561;-68
2022/07/22 09:35:35;;;;;;;8.77;2.40;;;21.80;99.90;;;;;;5016887;28;20119;-68
2022/07/22 09:38:04;;;;;;;11.45;3.13;;;21.70;99.90;;;;;;5035863;28;20049;-68
2022/07/22 09:40:35;;;;;;;7.50;2.30;;;21.70;99.90;;;;;;5018448;28;20492;-65
2022/07/22 09:43:11;;;;;;;6.68;2.45;;;21.80;99.90;;;;;;5035786;28;20052;-68
2022/07/22 09:45:51;;;;;;;6.60;2.10;;;21.80;99.90;;;;;;5051814;28;20067;-68
2022/07/22 09:48:20;;;;;;;6.97;2.20;;;22.00;99.90;;;;;;5051461;28;20065;-68
2022/07/22 09:50:47;;;;;;;11.27;4.22;;;22.10;99.90;;;;;;5018015;28;20403;-67
2022/07/22 09:53:16;;;;;;;6.85;2.33;;;22.20;99.90;;;;;;5035348;28;20056;-69
2022/07/22 09:55:44;;;;;;;7.75;3.03;;;22.30;99.90;;;;;;5051003;28;20049;-67
2022/07/22 09:58:12;;;;;;;11.73;3.03;;;22.30;99.90;;;;;;4999562;28;20053;-67
2022/07/22 10:00:39;;;;;;;7.68;2.15;;;22.30;99.90;;;;;;5031002;28;20140;-67
2022/07/22 10:03:07;;;;;;;6.35;2.08;;;22.50;99.90;;;;;;5031640;28;20045;-68
2022/07/22 10:05:39;;;;;;;10.02;3.38;;;22.40;99.90;;;;;;5031037;28;20049;-67
2022/07/22 10:08:06;;;;;;;8.65;2.28;;;22.30;99.90;;;;;;5031824;28;20049;-68
2022/07/22 10:10:34;;;;;;;8.40;2.50;;;22.30;99.90;;;;;;5031337;28;20394;-68
2022/07/22 10:13:02;;;;;;;6.82;2.70;;;22.20;99.90;;;;;;5015027;28;20059;-67
2022/07/22 10:15:30;;;;;;;6.57;2.90;;;22.20;99.90;;;;;;5014820;28;20479;-67
2022/07/22 10:18:05;;;;;;;8.63;2.78;;;22.40;99.90;;;;;;5019273;28;20064;-67
2022/07/22 10:20:32;;;;;;;5.75;2.50;;;22.40;99.90;;;;;;5051730;28;20055;-68
2022/07/22 10:23:03;;;;;;;4.85;2.75;;;22.40;99.90;;;;;;5034141;28;20053;-67
2022/07/22 10:26:06;;;;;;;7.05;2.58;;;22.40;99.90;;;;;;5050639;28;20048;-68
2022/07/22 10:28:35;;;;;;;10.05;1.98;;;22.40;99.90;;;;;;5035408;28;20053;-67
2022/07/22 10:31:24;;;;;;;7.45;2.75;;;22.50;99.90;;;;;;5034486;28;20061;-68
2022/07/22 10:33:56;;;;;;;5.03;2.60;;;22.60;99.90;;;;;;5035757;28;20071;-67
2022/07/22 10:36:37;;;;;;;5.63;2.28;;;22.70;99.90;;;;;;5034134;28;20092;-72
2022/07/22 10:39:11;;;;;;;7.68;2.15;;;22.80;99.90;;;;;;5050737;28;20067;-67
2022/07/22 10:41:42;;;;;;;8.05;2.38;;;22.80;99.90;;;;;;5018064;28;20055;-67
2022/07/22 10:44:48;;;;;;;7.47;1.73;;;22.80;99.90;;;;;;5020503;28;20190;-74
2022/07/22 10:47:56;;;;;;;4.63;1.77;;;22.80;99.90;;;;;;5050593;28;20052;-67
2022/07/22 10:50:37;;;;;;;6.55;2.65;;;22.70;99.90;;;;;;5033771;28;20049;-67
2022/07/22 10:53:11;;;;;;;6.70;2.20;;;22.80;99.90;;;;;;5049376;28;20462;-68
2022/07/22 10:56:00;;;;;;;8.95;3.17;;;23.00;99.90;;;;;;5050812;28;20049;-67
2022/07/22 10:58:36;;;;;;;13.32;4.53;;;22.90;99.90;;;;;;5035767;28;20496;-67
2022/07/22 11:01:07;;;;;;;13.82;2.60;;;22.80;99.90;;;;;;5050872;28;20487;-67
2022/07/22 11:03:35;;;;;;;9.50;2.90;;;22.80;99.90;;;;;;5050293;28;20076;-67
2022/07/22 11:06:17;;;;;;;13.05;2.92;;;22.60;99.90;;;;;;5050094;28;20053;-67
2022/07/22 11:08:45;;;;;;;8.93;3.00;;;22.50;99.90;;;;;;5050210;28;20057;-74
2022/07/22 11:11:12;;;;;;;6.23;2.57;;;22.40;99.90;;;;;;5033827;28;20060;-67
2022/07/22 11:13:41;;;;;;;6.15;2.72;;;22.40;99.90;;;;;;5051783;28;20052;-67
2022/07/22 11:16:25;;;;;;;5.93;2.13;;;22.30;99.90;;;;;;5051341;28;20417;-67
2022/07/22 11:18:53;;;;;;;3.85;1.83;;;22.30;99.90;;;;;;5034250;28;20056;-67
2022/07/22 11:21:23;;;;;;;8.20;2.30;;;22.20;99.90;;;;;;5049838;28;20060;-67
2022/07/22 11:23:52;;;;;;;6.55;2.55;;;22.20;99.90;;;;;;5014028;28;20050;-68
2022/07/22 11:26:31;;;;;;;6.82;2.42;;;22.20;99.90;;;;;;5014473;28;20135;-67
2022/07/22 11:28:58;;;;;;;8.07;2.67;;;22.20;99.90;;;;;;5021431;28;20108;-67
2022/07/22 11:31:25;;;;;;;5.68;2.42;;;22.20;99.90;;;;;;5013471;28;20464;-68
2022/07/22 11:33:52;;;;;;;8.55;3.17;;;22.20;99.90;;;;;;5030097;28;20488;-68
2022/07/22 11:36:22;;;;;;;6.10;2.33;;;22.20;99.90;;;;;;5013632;28;20050;-68
2022/07/22 11:38:50;;;;;;;10.02;2.20;;;22.10;99.90;;;;;;5014747;28;20061;-67
2022/07/22 11:41:19;;;;;;;9.40;2.22;;;22.10;99.90;;;;;;4998266;28;20053;-67
2022/07/22 11:43:48;;;;;;;8.27;2.40;;;22.10;99.90;;;;;;5014069;28;20049;-68
2022/07/22 11:46:18;;;;;;;7.43;2.70;;;22.10;99.90;;;;;;5029993;28;20061;-67
2022/07/22 11:48:45;;;;;;;8.98;2.92;;;22.10;99.90;;;;;;5030439;28;20420;-68
2022/07/22 11:51:12;;;;;;;7.75;2.65;;;22.00;99.90;;;;;;5048620;28;20060;-67
2022/07/22 11:53:47;;;;;;;12.35;3.65;;;21.90;99.90;;;;;;5049929;28;20045;-68
2022/07/22 11:56:14;;;;;;;6.50;2.47;;;21.80;99.90;;;;;;5049878;28;20452;-67
2022/07/22 11:58:46;;;;;;;10.90;3.00;;;21.70;99.90;;;;;;5034608;28;20404;-67
2022/07/22 12:01:15;;;;;;;4.97;2.25;;;21.70;99.90;;;;;;5053470;28;20059;-74
2022/07/22 12:03:45;;;;;;;12.20;4.57;;;21.70;99.90;;;;;;5037876;28;20072;-67
2022/07/22 12:06:12;;;;;;;7.00;2.80;;;21.60;99.90;;;;;;5053897;28;20053;-67
2022/07/22 12:08:42;;;;;;;9.25;2.78;;;21.50;99.90;;;;;;5037378;28;20080;-67
2022/07/22 12:11:10;;;;;;;6.35;2.38;;;21.40;99.90;;;;;;5037518;28;20422;-68
2022/07/22 12:13:47;;;;;;;12.50;3.63;;;21.30;99.90;;;;;;5033694;28;20113;-69
2022/07/22 12:16:27;;;;;;;5.88;2.33;;;21.30;99.90;;;;;;5033620;28;20088;-67
2022/07/22 12:19:08;;;;;;;8.82;4.05;;;21.30;99.90;;;;;;5033683;28;20060;-67
2022/07/22 12:21:37;;;;;;;7.78;2.80;;;21.20;99.90;;;;;;5045299;28;20067;-68
2022/07/22 12:24:06;;;;;;;6.97;2.50;;;21.20;99.90;;;;;;5053769;28;20476;-68
2022/07/22 12:26:51;;;;;;;12.93;2.95;;;21.10;99.90;;;;;;5037359;28;20041;-67
2022/07/22 12:29:18;;;;;;;11.38;2.72;;;21.00;99.90;;;;;;5054178;28;20064;-68
2022/07/22 12:31:52;;;;;;;12.75;3.38;;;20.80;99.90;;;;;;5054434;28;20380;-72
2022/07/22 12:34:57;;;;;;;24.60;13.02;;;20.60;99.90;;;;;;5038545;28;20045;-68
2022/07/22 12:37:29;;;;;;;10.98;3.83;;;20.50;99.90;;;;;;5042864;28;20056;-67
2022/07/22 12:40:03;;;;;;;20.85;4.93;;;20.40;99.90;;;;;;5054237;28;20048;-68
2022/07/22 12:42:31;;;;;;;15.95;4.78;;;20.30;99.90;;;;;;5053625;28;20049;-68
2022/07/22 12:45:05;;;;;;;12.68;4.25;;;20.20;99.90;;;;;;5054677;28;20045;-68
2022/07/22 12:47:54;;;;;;;11.88;3.55;;;20.10;99.90;;;;;;5052448;28;20057;-70
2022/07/22 12:50:28;;;;;;;8.77;3.20;;;20.00;99.90;;;;;;5053029;28;20561;-68
2022/07/22 12:53:00;;;;;;;10.32;3.70;;;20.00;99.90;;;;;;5053590;28;20045;-68
2022/07/22 12:55:46;;;;;;;7.40;3.58;;;20.00;99.90;;;;;;5054527;28;20049;-69